Time;durP1;ratioP1;P1;durP2;ratioP2;P2;SDS_P1;SDS_P2;PMS_P1;PMS_P2;Temp;Humidity;BMP_temperature;BMP_pressure;BME280_temperature;BME280_humidity;BME280_pressure;Samples;Min_cycle;Max_cycle;Signal;HPM_P1;HPM_P2
2021/07/02 03:35:15;;;;;;;10.27;7.00;;;;;;;18.16;60.86;98857.28;6892526;28;20237;-84
2021/07/02 03:38:36;;;;;;;7.20;6.27;;;;;;;18.07;61.29;98855.25;6894270;28;20204;-84
2021/07/02 03:41:58;;;;;;;8.13;7.00;;;;;;;18.26;60.76;98878.41;6880315;28;20231;-84
2021/07/02 03:45:19;;;;;;;9.13;7.20;;;;;;;17.83;61.29;98886.53;6868897;28;20190;-84
2021/07/02 03:48:41;;;;;;;10.43;6.80;;;;;;;17.37;62.79;98843.22;6868798;28;20215;-84
2021/07/02 03:52:05;;;;;;;9.20;7.03;;;;;;;17.84;61.37;98880.00;6868239;28;20596;-84
2021/07/02 03:55:27;;;;;;;8.33;6.97;;;;;;;17.98;62.10;98876.66;6868327;28;20240;-84
2021/07/02 03:58:48;;;;;;;10.37;7.30;;;;;;;17.76;61.23;98881.22;6868305;28;20216;-86
2021/07/02 04:02:10;;;;;;;9.90;6.20;;;;;;;17.84;61.57;98883.56;6867814;28;20238;-84
2021/07/02 04:05:31;;;;;;;9.70;6.87;;;;;;;18.00;61.46;98884.59;6868093;28;20586;-84
2021/07/02 04:08:54;;;;;;;10.43;6.90;;;;;;;17.84;61.55;98882.72;6868640;28;20219;-84
2021/07/02 04:12:16;;;;;;;8.80;6.97;;;;;;;17.52;62.66;98895.28;6867785;28;20243;-84
2021/07/02 04:15:37;;;;;;;11.23;6.90;;;;;;;17.85;62.23;98882.47;6868143;28;20225;-84
2021/07/02 04:18:59;;;;;;;9.57;7.00;;;;;;;17.98;62.06;98882.13;6866912;28;20272;-84
2021/07/02 04:22:21;;;;;;;10.20;7.27;;;;;;;18.36;61.51;98881.31;6872629;28;20228;-84
2021/07/02 04:25:44;;;;;;;8.87;7.10;;;;;;;18.35;60.79;98893.34;6872970;28;20211;-84
2021/07/02 04:29:05;;;;;;;7.40;6.30;;;;;;;18.77;59.98;98883.47;6867518;28;20204;-84
2021/07/02 04:32:27;;;;;;;7.57;6.77;;;;;;;18.46;60.52;98886.94;6865973;28;20256;-84
2021/07/02 04:35:48;;;;;;;11.73;7.17;;;;;;;17.71;63.39;98893.97;6867259;28;20348;-84
2021/07/02 04:39:10;;;;;;;9.80;6.70;;;;;;;18.64;61.24;98892.06;6866973;28;20220;-84
2021/07/02 04:42:33;;;;;;;10.27;6.70;;;;;;;18.87;60.99;98903.53;6866815;28;20370;-85
2021/07/02 04:45:55;;;;;;;8.37;6.77;;;;;;;18.92;60.64;98902.81;6867300;28;20217;-84
2021/07/02 04:49:16;;;;;;;7.07;6.27;;;;;;;19.56;59.23;98899.09;6867387;28;20615;-84
2021/07/02 04:52:38;;;;;;;10.80;6.80;;;;;;;19.40;58.81;98897.31;6866858;28;20225;-84
2021/07/02 04:56:00;;;;;;;7.47;6.67;;;;;;;19.44;58.88;98901.16;6866553;28;20228;-84
2021/07/02 04:59:27;;;;;;;7.53;6.50;;;;;;;19.52;59.00;98908.91;6866369;28;20204;-84
2021/07/02 05:02:49;;;;;;;8.27;6.40;;;;;;;19.50;59.08;98894.66;6866625;28;20278;-84
2021/07/02 05:06:11;;;;;;;6.87;6.17;;;;;;;19.01;60.47;98898.50;6868413;28;20211;-84
2021/07/02 05:09:32;;;;;;;8.63;6.70;;;;;;;19.14;60.59;98898.09;6868426;28;20216;-84
2021/07/02 05:12:54;;;;;;;7.20;6.50;;;;;;;19.56;59.15;98878.03;6865820;28;20234;-84
2021/07/02 05:16:17;;;;;;;7.77;6.60;;;;;;;19.57;59.08;98879.69;6866291;28;20197;-84
2021/07/02 05:19:41;;;;;;;9.80;5.93;;;;;;;19.76;58.56;98905.56;6866550;28;20239;-84
2021/07/02 05:23:03;;;;;;;7.00;6.30;;;;;;;19.64;58.13;98863.88;6865814;28;20227;-85
2021/07/02 05:26:24;;;;;;;8.43;6.13;;;;;;;20.63;56.75;98882.03;6866661;28;20216;-84
2021/07/02 05:29:46;;;;;;;7.17;5.87;;;;;;;20.72;55.94;98882.34;6866131;28;20213;-85
2021/07/02 05:33:09;;;;;;;7.13;6.37;;;;;;;20.67;56.73;98903.16;6863682;28;20240;-84
2021/07/02 05:36:31;;;;;;;8.13;5.87;;;;;;;21.00;56.18;98909.34;6865877;28;20205;-85
2021/07/02 05:39:52;;;;;;;8.67;5.83;;;;;;;20.67;56.87;98900.41;6865898;28;20700;-84
2021/07/02 05:43:14;;;;;;;9.80;6.50;;;;;;;20.96;56.74;98906.34;6865435;28;20829;-84
2021/07/02 05:46:36;;;;;;;7.43;6.10;;;;;;;20.48;56.74;98897.59;6865843;28;20584;-84
2021/07/02 05:49:59;;;;;;;7.80;6.10;;;;;;;20.50;57.36;98909.09;6865469;28;20201;-84
2021/07/02 05:53:20;;;;;;;7.30;6.60;;;;;;;20.58;57.39;98912.16;6864997;28;20700;-84
2021/07/02 05:56:42;;;;;;;8.80;5.30;;;;;;;20.36;56.69;98873.16;6866300;28;20205;-84
2021/07/02 06:00:05;;;;;;;8.20;6.03;;;;;;;21.00;57.19;98904.72;6865223;28;20258;-84
2021/07/02 06:03:27;;;;;;;8.03;6.20;;;;;;;21.13;56.06;98891.28;6865070;28;20232;-84
2021/07/02 06:06:50;;;;;;;7.37;6.07;;;;;;;21.46;56.08;98929.22;6865846;28;20208;-84
2021/07/02 06:10:12;;;;;;;7.33;6.37;;;;;;;21.92;54.44;98924.59;6865532;28;20213;-84
2021/07/02 06:13:34;;;;;;;6.80;6.10;;;;;;;21.45;54.49;98927.56;6864944;28;20232;-84
2021/07/02 06:16:56;;;;;;;7.67;6.47;;;;;;;21.46;54.27;98934.72;6865421;28;20205;-85
2021/07/02 06:20:20;;;;;;;7.10;5.77;;;;;;;22.60;51.67;98927.56;6865526;28;20221;-85
2021/07/02 06:23:43;;;;;;;6.83;6.00;;;;;;;21.92;50.71;98921.88;6865732;28;20212;-84
2021/07/02 06:27:05;;;;;;;6.67;6.07;;;;;;;21.90;51.70;98929.56;6864756;28;20205;-84
2021/07/02 06:30:27;;;;;;;7.17;6.07;;;;;;;22.67;50.41;98938.25;6864446;28;20218;-84
2021/07/02 06:33:48;;;;;;;6.63;5.70;;;;;;;23.09;48.00;98911.97;6863732;28;20251;-85
2021/07/02 06:37:10;;;;;;;7.57;5.50;;;;;;;22.62;49.42;98939.09;6864939;28;20205;-84
2021/07/02 06:40:33;;;;;;;10.77;6.47;;;;;;;22.98;48.94;98942.53;6864744;28;20243;-84
2021/07/02 06:43:55;;;;;;;8.13;6.70;;;;;;;24.07;46.64;98934.75;6863627;28;20215;-85
2021/07/02 06:47:17;;;;;;;5.67;5.17;;;;;;;23.75;46.31;98942.66;6864801;28;20206;-85
2021/07/02 06:50:40;;;;;;;6.57;5.97;;;;;;;24.01;46.86;98924.88;6864416;28;20234;-84
2021/07/02 06:54:02;;;;;;;6.83;5.50;;;;;;;24.60;44.05;98928.19;6864550;28;20234;-84
2021/07/02 06:57:25;;;;;;;7.13;5.60;;;;;;;24.38;44.79;98920.41;6864937;28;20237;-85
2021/07/02 07:00:47;;;;;;;7.33;5.50;;;;;;;24.71;44.87;98930.53;6863334;28;20225;-85
2021/07/02 07:04:09;;;;;;;6.37;5.70;;;;;;;23.96;44.93;98935.94;6863542;28;20202;-85
2021/07/02 07:07:30;;;;;;;6.90;6.20;;;;;;;24.56;45.18;98927.91;6864282;28;20206;-85
2021/07/02 07:10:52;;;;;;;8.30;5.07;;;;;;;25.79;42.29;98936.78;6864484;28;20234;-85
2021/07/02 07:14:15;;;;;;;6.23;5.50;;;;;;;24.93;43.10;98933.56;6863762;28;20320;-85
2021/07/02 07:17:37;;;;;;;7.30;5.67;;;;;;;24.60;43.47;98929.00;6864177;28;20213;-84
2021/07/02 07:20:58;;;;;;;6.60;5.03;;;;;;;25.39;41.91;98882.19;6863703;28;20280;-84
2021/07/02 07:24:20;;;;;;;6.27;5.67;;;;;;;25.64;40.82;98931.50;6863443;28;20686;-85
2021/07/02 07:27:44;;;;;;;6.37;5.60;;;;;;;25.25;41.80;98936.50;6864178;28;20220;-85
2021/07/02 07:31:09;;;;;;;5.57;5.07;;;;;;;25.22;43.02;98941.75;6880378;28;20243;-84
2021/07/02 07:34:35;;;;;;;6.67;6.00;;;;;;;25.76;41.85;98940.16;6863077;28;20717;-85
2021/07/02 07:37:57;;;;;;;6.67;5.97;;;;;;;25.17;42.72;98928.00;6863863;28;20293;-85
2021/07/02 07:41:20;;;;;;;6.10;5.50;;;;;;;25.82;41.56;98936.19;6863986;28;20236;-84
2021/07/02 07:44:42;;;;;;;5.80;5.20;;;;;;;26.15;39.29;98932.38;6863549;28;20221;-84
2021/07/02 07:48:05;;;;;;;5.53;5.03;;;;;;;25.24;38.25;98917.50;6864016;28;20213;-85
2021/07/02 07:51:36;;;;;;;4.90;4.40;;;;;;;25.36;38.17;98921.44;6864323;28;20234;-84
2021/07/02 07:54:58;;;;;;;5.33;4.83;;;;;;;25.59;38.38;98926.06;6865091;28;20372;-84
2021/07/02 07:58:20;;;;;;;4.97;4.23;;;;;;;26.00;37.89;98935.38;6868544;28;20218;-85
2021/07/02 08:01:42;;;;;;;5.60;4.70;;;;;;;25.63;37.15;98924.34;6869305;28;21059;-84
2021/07/02 08:05:06;;;;;;;5.40;4.30;;;;;;;24.87;38.47;98933.91;6867550;28;20218;-84
2021/07/02 08:08:28;;;;;;;4.83;4.43;;;;;;;24.31;39.49;98939.19;6868537;28;20212;-85
2021/07/02 08:11:49;;;;;;;5.47;4.97;;;;;;;25.14;39.95;98945.97;6868748;28;20229;-84
2021/07/02 08:15:13;;;;;;;6.13;4.63;;;;;;;25.98;36.06;98942.34;6868301;28;20239;-84
2021/07/02 08:18:35;;;;;;;4.87;4.30;;;;;;;26.02;37.28;98940.63;6868959;28;20220;-84
2021/07/02 08:21:57;;;;;;;5.03;4.37;;;;;;;24.90;39.32;98938.88;6868127;28;20232;-85
2021/07/02 08:25:19;;;;;;;4.47;4.07;;;;;;;25.44;37.38;98931.81;6867734;28;20205;-84
2021/07/02 08:32:20;;;;;;;4.80;4.40;;;;;;;24.54;38.50;98956.91;6866822;28;20234;-85
2021/07/02 08:35:41;;;;;;;4.23;3.83;;;;;;;25.44;38.69;98967.72;6867714;28;20274;-85
2021/07/02 08:39:05;;;;;;;4.90;4.30;;;;;;;25.78;37.30;98960.00;6869429;28;20206;-85
2021/07/02 08:42:26;;;;;;;5.30;4.20;;;;;;;25.71;35.62;98956.81;6874293;28;20610;-85
2021/07/02 08:45:48;;;;;;;4.93;4.43;;;;;;;26.12;35.24;98959.81;6871988;28;20219;-85
2021/07/02 08:49:10;;;;;;;4.67;4.20;;;;;;;26.03;34.21;98926.50;6871059;28;20205;-85
2021/07/02 08:52:32;;;;;;;5.23;4.40;;;;;;;25.81;33.39;98964.97;6867817;28;20627;-84
2021/07/02 08:55:56;;;;;;;9.60;4.63;;;;;;;26.06;33.60;98960.97;6867537;28;20716;-85
2021/07/02 08:59:18;;;;;;;4.57;4.17;;;;;;;26.21;35.00;98966.28;6867581;28;20216;-85
2021/07/02 09:02:41;;;;;;;6.40;5.23;;;;;;;27.30;32.47;98943.19;6866534;28;20236;-85
2021/07/02 09:06:16;;;;;;;5.37;4.87;;;;;;;27.27;33.09;98946.56;6867141;28;20288;-85
2021/07/02 09:09:46;;;;;;;4.93;4.53;;;;;;;27.36;33.56;98955.78;6867713;28;20320;-85
2021/07/02 09:13:09;;;;;;;4.77;4.37;;;;;;;26.48;33.07;98977.41;6866961;28;20261;-84
2021/07/02 09:16:37;;;;;;;4.40;4.03;;;;;;;26.14;32.39;98969.41;6866834;28;20599;-85
2021/07/02 09:20:12;;;;;;;4.47;4.07;;;;;;;26.65;32.91;98970.19;6866706;28;20193;-85
2021/07/02 09:23:38;;;;;;;5.57;4.23;;;;;;;26.99;31.30;98959.56;6866308;28;20185;-85
2021/07/02 09:27:00;;;;;;;4.50;4.13;;;;;;;28.25;31.28;98957.56;6866722;28;20626;-86
2021/07/02 13:32:25;;;;;;;5.37;4.13;;;;;;;29.25;27.81;98933.44;6863165;28;20229;-90
2021/07/02 13:35:46;;;;;;;4.87;4.40;;;;;;;29.41;26.50;98931.84;6865568;28;20232;-88
2021/07/02 13:39:11;;;;;;;4.70;4.30;;;;;;;29.47;26.58;98904.72;6866060;28;20227;-88
2021/07/02 13:42:33;;;;;;;5.13;4.70;;;;;;;28.71;27.19;98911.66;6865506;28;20505;-88
2021/07/02 13:46:00;;;;;;;5.93;4.53;;;;;;;28.18;27.71;98801.94;6865338;28;20260;-88
2021/07/02 13:49:22;;;;;;;5.13;4.70;;;;;;;28.83;28.46;98925.75;6865195;28;20211;-86
2021/07/02 13:52:44;;;;;;;5.60;4.63;;;;;;;28.95;27.93;98920.44;6863278;28;20238;-86
2021/07/02 13:56:06;;;;;;;4.77;4.37;;;;;;;27.47;29.19;98913.69;6864633;28;20225;-86
2021/07/02 13:59:28;;;;;;;5.57;4.83;;;;;;;28.20;29.30;98927.19;6865246;28;20557;-86
2021/07/02 14:02:49;;;;;;;5.17;4.67;;;;;;;26.19;29.49;98856.00;6865057;28;20240;-86
2021/07/02 14:06:22;;;;;;;5.53;5.03;;;;;;;27.00;29.68;98791.53;6864718;28;20216;-86
2021/07/02 14:09:53;;;;;;;5.57;4.60;;;;;;;28.30;28.05;98866.72;6865480;28;20591;-86
2021/07/02 14:13:23;;;;;;;4.83;4.40;;;;;;;27.58;29.17;98820.91;6864811;28;20288;-86
2021/07/02 14:16:45;;;;;;;6.13;4.93;;;;;;;28.95;28.32;98911.28;6863984;28;20552;-86
2021/07/02 14:20:09;;;;;;;4.97;4.53;;;;;;;29.10;28.23;98924.75;6864392;28;20216;-86
2021/07/02 14:23:31;;;;;;;5.10;4.60;;;;;;;27.73;30.32;98936.09;6848703;28;20961;-85
2021/07/02 14:26:53;;;;;;;6.03;4.57;;;;;;;28.52;28.97;98933.28;6835953;29;20214;-85
2021/07/02 14:30:16;;;;;;;4.90;4.37;;;;;;;28.31;28.85;98934.13;6838220;29;20329;-85
2021/07/02 14:33:38;;;;;;;4.90;4.40;;;;;;;28.75;29.54;98945.97;6836320;29;20589;-85
2021/07/02 14:37:04;;;;;;;5.83;4.90;;;;;;;29.03;27.95;98943.84;6837725;29;20232;-85
2021/07/02 14:40:39;;;;;;;5.07;4.57;;;;;;;28.52;30.10;98921.38;6838137;29;20678;-86
2021/07/02 14:44:02;;;;;;;5.67;4.23;;;;;;;28.62;29.38;98948.84;6837543;29;20217;-85
2021/07/02 14:47:23;;;;;;;4.77;4.30;;;;;;;28.98;28.46;98938.44;6837883;28;20245;-84
2021/07/02 14:50:45;;;;;;;5.07;4.57;;;;;;;28.78;28.73;98945.34;6837722;29;20225;-88
2021/07/02 14:54:07;;;;;;;6.73;5.17;;;;;;;28.74;29.16;98927.69;6837342;29;20210;-88
2021/07/02 14:57:31;;;;;;;5.37;4.90;;;;;;;27.70;29.74;98965.25;6837790;28;20728;-88
2021/07/02 15:00:53;;;;;;;5.20;4.73;;;;;;;27.85;29.53;98937.19;6837635;29;20225;-89
2021/07/02 15:04:14;;;;;;;5.63;5.13;;;;;;;27.50;30.95;98901.19;6840148;28;20581;-89
2021/07/02 15:07:36;;;;;;;5.13;4.70;;;;;;;28.13;29.40;98946.25;6843765;29;20209;-88
2021/07/02 15:10:57;;;;;;;5.17;4.67;;;;;;;28.15;29.15;98924.56;6854988;29;20236;-88
2021/07/02 15:14:20;;;;;;;6.47;4.77;;;;;;;28.59;29.34;98932.81;6842998;29;20202;-88
2021/07/02 15:17:42;;;;;;;6.60;4.33;;;;;;;28.86;30.04;98924.31;6843859;29;20241;-87
2021/07/02 15:21:04;;;;;;;5.63;4.90;;;;;;;29.34;28.41;98916.78;6843374;29;20227;-88
2021/07/02 15:24:25;;;;;;;6.93;5.67;;;;;;;28.79;28.83;98905.31;6843113;28;20220;-89
2021/07/02 15:27:47;;;;;;;6.27;5.67;;;;;;;29.19;28.61;98925.59;6843911;29;20222;-88
2021/07/02 15:31:46;;;;;;;6.07;5.07;;;;;;;28.54;29.72;98931.00;6842014;29;20237;-83
2021/07/02 15:35:11;;;;;;;5.23;4.83;;;;;;;27.75;30.91;98928.28;6842281;29;20221;-85
2021/07/02 15:38:33;;;;;;;5.83;5.17;;;;;;;27.59;31.09;98902.88;6842401;28;20304;-86
2021/07/02 15:41:55;;;;;;;5.40;4.90;;;;;;;27.92;30.58;98923.75;6842389;29;20242;-85
2021/07/02 15:45:16;;;;;;;5.17;4.77;;;;;;;28.35;29.26;98913.75;6841648;29;20209;-85
2021/07/02 15:48:38;;;;;;;5.07;4.60;;;;;;;27.72;29.76;98915.88;6841839;29;20206;-85
2021/07/02 15:52:01;;;;;;;5.27;4.77;;;;;;;28.06;31.00;98904.25;6841821;28;20268;-85
2021/07/02 15:55:22;;;;;;;4.70;4.30;;;;;;;27.64;30.69;98913.84;6841934;29;20311;-86
2021/07/02 15:58:44;;;;;;;4.97;4.47;;;;;;;27.48;30.30;98909.00;6843251;29;20214;-86
2021/07/02 16:02:06;;;;;;;5.93;4.40;;;;;;;27.40;30.29;98916.09;6842235;29;20226;-85
2021/07/02 16:05:27;;;;;;;5.10;4.60;;;;;;;27.55;31.16;98918.50;6843091;29;20554;-86
2021/07/02 16:08:50;;;;;;;5.07;4.57;;;;;;;27.60;30.97;98918.38;6842546;29;20222;-86
2021/07/02 16:12:12;;;;;;;5.60;4.37;;;;;;;28.20;30.77;98922.44;6842373;29;20749;-85
2021/07/02 16:15:34;;;;;;;6.63;4.90;;;;;;;27.84;31.37;98868.25;6841656;28;20232;-85
2021/07/02 16:18:55;;;;;;;5.33;4.67;;;;;;;28.10;31.36;98919.97;6842472;29;20202;-86
2021/07/02 16:22:17;;;;;;;7.20;4.77;;;;;;;27.10;31.43;98897.34;6841979;29;20244;-85
2021/07/02 16:25:40;;;;;;;5.67;4.67;;;;;;;28.16;30.49;98915.91;6843091;29;20210;-86
2021/07/02 16:29:03;;;;;;;4.77;4.37;;;;;;;27.37;31.25;98905.59;6841860;29;20205;-86
2021/07/02 16:32:24;;;;;;;6.13;4.77;;;;;;;26.61;31.73;98827.28;6841081;29;20706;-86
2021/07/02 16:35:46;;;;;;;5.03;4.63;;;;;;;27.72;30.96;98932.50;6843282;29;20227;-86
2021/07/02 16:39:08;;;;;;;4.90;4.50;;;;;;;26.95;31.71;98907.94;6842644;29;20613;-86
2021/07/02 16:42:31;;;;;;;5.23;4.73;;;;;;;27.97;30.22;98901.44;6840671;29;20218;-86
2021/07/02 16:45:52;;;;;;;4.93;4.53;;;;;;;27.80;31.60;98920.72;6840847;29;20206;-85
2021/07/02 16:49:14;;;;;;;6.20;4.93;;;;;;;27.68;32.84;98927.91;6841502;29;20213;-86
2021/07/02 16:52:36;;;;;;;5.53;5.03;;;;;;;28.46;31.32;98926.25;6841093;29;20249;-86
2021/07/02 16:55:57;;;;;;;5.40;4.90;;;;;;;27.95;31.18;98889.84;6845258;29;20234;-86
2021/07/02 16:59:20;;;;;;;4.93;4.53;;;;;;;27.90;30.78;98931.53;6842478;29;20216;-86
2021/07/02 17:02:42;;;;;;;6.17;4.87;;;;;;;27.90;31.16;98917.69;6840873;29;20245;-88
2021/07/02 17:06:04;;;;;;;6.73;5.20;;;;;;;27.75;32.18;98923.56;6841182;29;20213;-88
2021/07/02 17:09:26;;;;;;;5.33;4.90;;;;;;;27.56;31.34;98925.69;6840980;29;20221;-88
2021/07/02 17:12:47;;;;;;;5.70;5.17;;;;;;;26.85;32.96;98928.28;6840507;29;20229;-88
2021/07/02 17:16:10;;;;;;;6.10;5.07;;;;;;;26.56;33.40;98936.09;6840129;29;20229;-88
2021/07/02 17:19:32;;;;;;;6.20;5.60;;;;;;;27.23;33.04;98929.75;6840353;29;20206;-87
2021/07/02 17:22:55;;;;;;;5.77;5.27;;;;;;;27.77;32.01;98923.28;6840321;29;20237;-88
2021/07/02 17:26:17;;;;;;;5.83;5.23;;;;;;;27.24;32.84;98933.34;6840843;28;20210;-88
2021/07/02 17:29:41;;;;;;;6.00;5.40;;;;;;;27.96;32.16;98924.72;6839816;28;20213;-88
2021/07/02 17:33:06;;;;;;;5.77;5.07;;;;;;;27.73;31.81;98928.59;6839836;29;20292;-88
2021/07/02 17:36:30;;;;;;;6.00;5.50;;;;;;;27.63;31.57;98897.53;6839954;28;20354;-87
2021/07/02 17:39:52;;;;;;;5.70;5.07;;;;;;;28.07;31.46;98911.47;6839768;29;20585;-88
2021/07/02 17:43:13;;;;;;;6.60;4.70;;;;;;;27.03;32.64;98857.38;6839676;29;20232;-89
2021/07/02 17:46:35;;;;;;;5.63;5.10;;;;;;;27.96;31.66;98919.19;6839742;29;20217;-91
2021/07/02 17:49:58;;;;;;;6.23;5.63;;;;;;;27.60;31.35;98862.97;6839388;29;20205;-88
2021/07/02 17:53:20;;;;;;;5.60;4.83;;;;;;;27.43;31.46;98826.00;6839245;29;20297;-88
2021/07/02 17:56:41;;;;;;;4.93;4.53;;;;;;;27.63;31.44;98908.63;6839498;29;20229;-88
2021/07/02 18:00:04;;;;;;;4.97;4.40;;;;;;;27.47;32.14;98896.25;6839438;29;20202;-88
2021/07/02 18:03:26;;;;;;;5.47;4.30;;;;;;;27.27;32.23;98897.56;6839413;29;20237;-88
2021/07/02 18:06:49;;;;;;;5.33;4.83;;;;;;;26.37;32.60;98812.81;6839221;29;20209;-89
2021/07/02 18:10:12;;;;;;;5.13;4.63;;;;;;;27.09;32.61;98904.00;6839078;29;20212;-88
2021/07/02 18:13:35;;;;;;;9.13;4.63;;;;;;;27.14;31.67;98901.09;6839341;29;20221;-89
2021/07/02 18:16:58;;;;;;;4.47;4.07;;;;;;;27.41;31.75;98878.94;6838736;29;20234;-88
2021/07/02 18:20:20;;;;;;;5.27;4.77;;;;;;;27.26;31.40;98873.75;6838488;29;20221;-88
2021/07/02 18:23:43;;;;;;;7.13;4.90;;;;;;;27.53;31.27;98890.28;6839349;29;20217;-85
2021/07/02 18:27:06;;;;;;;5.33;4.83;;;;;;;27.46;31.91;98898.22;6839182;29;20205;-87
2021/07/02 18:30:50;;;;;;;5.47;4.97;;;;;;;27.12;32.62;98891.47;6837731;29;20224;-87
2021/07/02 18:34:13;;;;;;;4.97;4.53;;;;;;;27.45;32.05;98895.75;6842117;29;20207;-86
2021/07/02 18:37:35;;;;;;;5.40;4.90;;;;;;;27.47;31.50;98886.00;6842480;28;20240;-87
2021/07/02 18:41:01;;;;;;;6.30;4.70;;;;;;;26.70;32.13;98870.50;6841676;29;20710;-87
2021/07/02 18:44:23;;;;;;;5.97;5.17;;;;;;;26.68;31.48;98803.63;6842986;29;20198;-86
2021/07/02 18:47:45;;;;;;;5.40;4.87;;;;;;;27.48;31.87;98879.31;6841422;29;20208;-87
2021/07/02 18:51:27;;;;;;;7.17;4.90;;;;;;;27.02;34.51;98825.28;6842145;29;20402;-86
2021/07/02 18:59:16;;;;;;;5.43;4.93;;;;;;;26.68;37.10;98886.63;6841723;29;20279;-88
2021/07/02 19:02:38;;;;;;;6.17;5.57;;;;;;;25.33;39.39;98803.34;6841162;28;20236;-88
2021/07/02 19:10:12;;;;;;;7.57;5.97;;;;;;;24.76;41.77;98819.31;6841612;29;20189;-87
2021/07/02 19:14:09;;;;;;;8.63;6.20;;;;;;;24.60;43.67;98890.38;6841647;29;20566;-87
2021/07/02 19:17:32;;;;;;;8.17;5.70;;;;;;;23.90;44.02;98772.66;6841319;29;20221;-87
2021/07/02 19:20:54;;;;;;;6.87;6.17;;;;;;;23.98;45.54;98873.09;6841219;29;20235;-87
2021/07/02 19:24:15;;;;;;;8.30;7.00;;;;;;;23.84;47.01;98902.41;6840908;29;20801;-87
2021/07/02 19:27:38;;;;;;;7.70;6.90;;;;;;;24.02;46.59;98886.00;6841106;29;20211;-87
2021/07/02 19:31:28;;;;;;;8.27;7.03;;;;;;;23.83;47.64;98907.09;6840463;28;20242;-86
2021/07/02 19:34:51;;;;;;;8.53;6.80;;;;;;;23.81;47.69;98905.72;6841322;28;20205;-87
2021/07/02 19:38:12;;;;;;;9.40;6.93;;;;;;;23.62;48.42;98908.38;6840957;29;20364;-87
2021/07/02 19:41:34;;;;;;;10.50;6.90;;;;;;;23.66;47.74;98894.84;6840652;29;20241;-87
2021/07/02 19:44:56;;;;;;;7.30;6.53;;;;;;;22.73;49.74;98854.66;6841459;29;20206;-87
2021/07/02 19:48:18;;;;;;;8.20;7.30;;;;;;;23.23;49.47;98918.53;6840796;29;20212;-87
2021/07/02 19:51:41;;;;;;;9.13;6.87;;;;;;;23.33;48.70;98914.88;6844683;28;20222;-87
2021/07/02 19:55:02;;;;;;;8.13;6.43;;;;;;;23.04;48.94;98901.00;6845510;29;20575;-87
2021/07/02 19:58:25;;;;;;;6.60;6.00;;;;;;;22.47;48.65;98828.38;6845440;29;20234;-87
2021/07/02 20:01:48;;;;;;;9.30;6.90;;;;;;;22.82;49.40;98943.69;6845754;29;20234;-88
2021/07/02 20:05:33;;;;;;;7.67;6.70;;;;;;;22.42;48.97;98848.44;6845547;29;20685;-87
2021/07/02 20:08:56;;;;;;;9.17;7.33;;;;;;;21.90;50.02;98812.31;6843173;29;20190;-87
2021/07/02 20:12:18;;;;;;;9.60;7.17;;;;;;;22.36;50.81;98936.66;6842404;29;20241;-87
2021/07/02 20:15:40;;;;;;;9.00;7.20;;;;;;;22.28;50.91;98946.28;6841766;29;20215;-87
2021/07/02 20:19:01;;;;;;;8.57;7.00;;;;;;;22.28;51.35;98949.03;6842262;29;20233;-87
2021/07/02 20:22:25;;;;;;;8.53;6.83;;;;;;;22.39;50.12;98949.84;6841440;29;20255;-87
2021/07/02 20:25:48;;;;;;;8.47;7.50;;;;;;;22.42;49.80;98944.59;6842450;29;20209;-87
2021/07/02 20:29:11;;;;;;;8.17;6.80;;;;;;;22.10;50.79;98922.13;6842290;28;20206;-87
2021/07/02 20:32:39;;;;;;;8.57;7.23;;;;;;;22.29;50.74;98958.91;6841848;29;20706;-87
2021/07/02 20:36:01;;;;;;;8.03;7.13;;;;;;;22.19;50.58;98961.66;6842453;29;20561;-86
2021/07/02 20:39:23;;;;;;;11.23;7.93;;;;;;;21.85;51.25;98962.50;6842237;29;20216;-87
2021/07/02 20:42:46;;;;;;;8.03;7.30;;;;;;;21.81;52.02;98964.97;6841952;29;20242;-84
2021/07/02 20:46:07;;;;;;;8.40;7.00;;;;;;;21.32;53.00;98946.47;6845675;29;20218;-84
2021/07/02 20:49:29;;;;;;;10.93;8.30;;;;;;;21.62;52.51;98969.31;6848774;29;20653;-85
2021/07/02 20:52:51;;;;;;;8.20;7.13;;;;;;;21.45;52.51;98971.47;6848628;29;20229;-85
2021/07/02 20:56:12;;;;;;;8.13;6.83;;;;;;;21.62;51.86;98968.47;6847914;29;20583;-85
2021/07/02 20:59:41;;;;;;;7.97;7.17;;;;;;;21.16;52.00;98936.53;6844063;29;20209;-87
